createdAt,value
2018-09-27T00:00:19.010Z,56.53
2018-09-27T00:01:18.805Z,56.48
2018-09-27T00:02:19.028Z,56.5
2018-09-27T00:03:18.882Z,56.56
2018-09-27T00:04:18.962Z,56.48
2018-09-27T00:05:18.959Z,56.5
2018-09-27T00:06:18.962Z,56.49
2018-09-27T00:07:18.867Z,56.46
2018-09-27T00:08:18.949Z,56.59
2018-09-27T00:09:18.939Z,56.51
2018-09-27T00:10:19.298Z,56.47
2018-09-27T00:11:18.776Z,56.52
2018-09-27T00:12:19.285Z,56.53
2018-09-27T00:13:19.001Z,56.56
2018-09-27T00:14:18.835Z,56.6
2018-09-27T00:15:19.019Z,56.55
2018-09-27T00:16:18.970Z,56.57
2018-09-27T00:17:19.168Z,56.58
2018-09-27T00:18:19.103Z,56.56
2018-09-27T00:19:18.956Z,56.55
2018-09-27T00:20:18.977Z,56.49
2018-09-27T00:21:19.417Z,56.5
2018-09-27T00:22:18.967Z,56.54
2018-09-27T00:23:19.003Z,56.51
2018-09-27T00:24:19.040Z,56.51
2018-09-27T00:25:19.182Z,56.6
2018-09-27T00:26:18.932Z,56.61
2018-09-27T00:27:18.930Z,56.65
2018-09-27T00:28:19.188Z,56.62
2018-09-27T00:29:19.105Z,56.6
2018-09-27T00:30:18.941Z,56.61
2018-09-27T00:31:19.000Z,56.57
2018-09-27T00:32:19.135Z,56.63
2018-09-27T00:33:19.229Z,56.66
2018-09-27T00:34:18.768Z,56.64
2018-09-27T00:35:18.892Z,56.6
2018-09-27T00:36:19.157Z,56.63
2018-09-27T00:37:18.848Z,56.6
2018-09-27T00:38:19.103Z,56.65
2018-09-27T00:39:18.964Z,56.62
2018-09-27T00:40:19.049Z,56.64
2018-09-27T00:41:19.318Z,56.58
2018-09-27T00:42:18.780Z,56.69
2018-09-27T00:43:18.878Z,56.63
2018-09-27T00:44:19.034Z,56.6
2018-09-27T00:45:19.140Z,56.68
2018-09-27T00:46:19.311Z,56.62
2018-09-27T00:47:19.023Z,56.7
2018-09-27T00:48:18.855Z,56.62
2018-09-27T00:49:18.870Z,56.65
2018-09-27T00:50:18.929Z,56.59
2018-09-27T00:51:18.932Z,56.66
2018-09-27T00:52:18.845Z,56.68
2018-09-27T00:53:19.067Z,56.61
2018-09-27T00:54:19.463Z,56.68
2018-09-27T00:55:19.011Z,56.62
2018-09-27T00:56:18.871Z,56.59
2018-09-27T00:57:18.939Z,56.59
2018-09-27T00:58:18.807Z,56.56
2018-09-27T00:59:18.869Z,56.6
2018-09-27T01:00:18.998Z,56.66
2018-09-27T01:01:18.996Z,56.62
2018-09-27T01:02:18.808Z,56.64
2018-09-27T01:03:19.087Z,56.63
2018-09-27T01:04:19.038Z,56.64
2018-09-27T01:05:19.088Z,56.66
2018-09-27T01:06:18.811Z,56.67
2018-09-27T01:07:18.906Z,56.66
2018-09-27T01:08:18.784Z,56.67
2018-09-27T01:09:19.077Z,56.69
2018-09-27T01:10:19.004Z,56.62
2018-09-27T01:11:19.208Z,56.67
2018-09-27T01:12:18.925Z,56.63
2018-09-27T01:13:18.936Z,56.64
2018-09-27T01:14:18.908Z,56.69
2018-09-27T01:15:18.788Z,56.65
2018-09-27T01:16:18.814Z,56.58
2018-09-27T01:17:18.926Z,56.68
2018-09-27T01:18:18.781Z,56.76
2018-09-27T01:19:18.744Z,56.67
2018-09-27T01:20:18.786Z,56.59
2018-09-27T01:21:19.023Z,56.64
2018-09-27T01:22:18.850Z,56.64
2018-09-27T01:23:19.227Z,56.69
2018-09-27T01:24:18.938Z,56.64
2018-09-27T01:25:18.763Z,56.71
2018-09-27T01:26:18.888Z,56.65
2018-09-27T01:27:18.881Z,56.68
2018-09-27T01:28:18.803Z,56.73
2018-09-27T01:29:18.876Z,56.63
2018-09-27T01:30:18.756Z,56.63
2018-09-27T01:31:18.889Z,56.69
2018-09-27T01:32:18.850Z,56.63
2018-09-27T01:33:19.575Z,56.64
2018-09-27T01:34:19.007Z,56.7
2018-09-27T01:35:18.949Z,56.68
2018-09-27T01:36:18.917Z,56.65
2018-09-27T01:37:19.013Z,56.72
2018-09-27T01:38:19.079Z,56.69
2018-09-27T01:39:19.068Z,56.68
2018-09-27T01:40:19.057Z,56.66
2018-09-27T01:41:18.915Z,56.65
2018-09-27T01:42:19.314Z,56.72
2018-09-27T01:43:19.195Z,56.71
2018-09-27T01:44:19.033Z,56.67
2018-09-27T01:45:19.118Z,56.69
2018-09-27T01:46:18.930Z,56.71
2018-09-27T01:47:18.991Z,56.7
2018-09-27T01:48:18.936Z,56.66
2018-09-27T01:49:19.104Z,56.72
2018-09-27T01:50:19.100Z,56.71
2018-09-27T01:51:18.858Z,56.7
2018-09-27T01:52:19.013Z,56.64
2018-09-27T01:53:18.916Z,56.68
2018-09-27T01:54:18.793Z,56.71
2018-09-27T01:55:19.135Z,56.73
2018-09-27T01:56:19.248Z,56.71
2018-09-27T01:57:19.298Z,56.69
2018-09-27T01:58:18.933Z,56.7
2018-09-27T01:59:18.882Z,56.65
2018-09-27T02:00:18.758Z,56.57
2018-09-27T02:01:19.038Z,56.63
2018-09-27T02:02:18.988Z,56.73
2018-09-27T02:03:19.124Z,56.72
2018-09-27T02:04:19.160Z,56.79
2018-09-27T02:05:18.950Z,56.73
2018-09-27T02:06:18.841Z,56.71
2018-09-27T02:07:18.947Z,56.66
2018-09-27T02:08:18.867Z,56.78
2018-09-27T02:09:18.979Z,56.75
2018-09-27T02:10:19.035Z,56.74
2018-09-27T02:11:18.869Z,56.7
2018-09-27T02:12:18.761Z,56.73
2018-09-27T02:13:18.909Z,56.72
2018-09-27T02:14:18.666Z,56.69
2018-09-27T02:15:18.908Z,56.64
2018-09-27T02:16:19.135Z,56.73
2018-09-27T02:17:18.745Z,56.67
2018-09-27T02:18:19.245Z,56.73
2018-09-27T02:19:18.775Z,56.72
2018-09-27T02:20:19.047Z,56.66
2018-09-27T02:21:18.970Z,56.71
2018-09-27T02:22:18.860Z,56.72
2018-09-27T02:23:19.028Z,56.68
2018-09-27T02:24:18.932Z,56.69
2018-09-27T02:25:18.748Z,56.65
2018-09-27T02:26:18.874Z,56.74
2018-09-27T02:27:19.193Z,56.73
2018-09-27T02:28:19.816Z,56.72
2018-09-27T02:29:19.162Z,56.72
2018-09-27T02:30:19.015Z,56.73
2018-09-27T02:31:18.873Z,56.75
2018-09-27T02:32:19.337Z,56.67
2018-09-27T02:33:19.064Z,56.82
2018-09-27T02:34:18.901Z,56.75
2018-09-27T02:35:19.111Z,56.75
2018-09-27T02:36:18.810Z,56.7
2018-09-27T02:37:18.827Z,56.76
2018-09-27T02:38:18.917Z,56.72
2018-09-27T02:39:18.963Z,56.77
2018-09-27T02:40:18.773Z,56.75
2018-09-27T02:41:18.756Z,56.78
2018-09-27T02:42:18.767Z,56.76
2018-09-27T02:43:18.843Z,56.77
2018-09-27T02:44:18.898Z,56.79
2018-09-27T02:45:18.813Z,56.75
2018-09-27T02:46:19.002Z,56.73
2018-09-27T02:47:18.785Z,56.78
2018-09-27T02:48:18.930Z,56.77
2018-09-27T02:49:19.059Z,56.77
2018-09-27T02:50:18.899Z,56.72
2018-09-27T02:51:18.866Z,56.75
2018-09-27T02:52:18.743Z,56.72
2018-09-27T02:53:18.863Z,56.67
2018-09-27T02:54:19.032Z,56.72
2018-09-27T02:55:19.051Z,56.76
2018-09-27T02:56:19.055Z,56.78
2018-09-27T02:57:18.822Z,56.7
2018-09-27T02:58:18.867Z,56.75
2018-09-27T02:59:19.035Z,56.77
2018-09-27T03:00:18.857Z,56.79
2018-09-27T03:01:18.907Z,56.62
2018-09-27T03:02:18.764Z,56.74
2018-09-27T03:03:18.713Z,56.7
2018-09-27T03:04:18.873Z,56.76
2018-09-27T03:05:18.850Z,56.75
2018-09-27T03:06:18.881Z,56.72
2018-09-27T03:07:18.818Z,56.69
2018-09-27T03:08:18.881Z,56.69
2018-09-27T03:09:18.746Z,56.77
2018-09-27T03:10:19.099Z,56.77
2018-09-27T03:11:18.813Z,56.69
2018-09-27T03:12:19.066Z,56.69
2018-09-27T03:13:18.968Z,56.67
2018-09-27T03:14:19.043Z,56.76
2018-09-27T03:15:18.835Z,56.71
2018-09-27T03:16:19.045Z,56.73
2018-09-27T03:17:19.082Z,56.71
2018-09-27T03:18:18.687Z,56.66
2018-09-27T03:19:19.067Z,56.69
2018-09-27T03:20:18.849Z,56.71
2018-09-27T03:21:19.109Z,56.7
2018-09-27T03:22:18.913Z,56.74
2018-09-27T03:23:18.900Z,56.71
2018-09-27T03:24:18.804Z,56.79
2018-09-27T03:25:19.066Z,56.67
2018-09-27T03:26:18.822Z,56.62
2018-09-27T03:27:19.061Z,56.7
2018-09-27T03:28:18.857Z,56.69
2018-09-27T03:29:18.914Z,56.71
2018-09-27T03:30:18.762Z,56.75
2018-09-27T03:31:18.912Z,56.82
2018-09-27T03:32:18.887Z,56.78
2018-09-27T03:33:19.180Z,56.74
2018-09-27T03:34:18.832Z,56.74
2018-09-27T03:35:19.053Z,56.75
2018-09-27T03:36:18.764Z,56.68
2018-09-27T03:37:19.269Z,56.67
2018-09-27T03:38:19.363Z,56.68
2018-09-27T03:39:19.189Z,56.69
2018-09-27T03:40:19.248Z,56.79
2018-09-27T03:41:18.804Z,56.73
2018-09-27T03:42:18.679Z,56.75
2018-09-27T03:43:18.962Z,56.75
2018-09-27T03:44:18.858Z,56.81
2018-09-27T03:45:19.044Z,56.78
2018-09-27T03:46:18.888Z,56.81
2018-09-27T03:47:19.259Z,56.79
2018-09-27T03:48:18.912Z,56.77
2018-09-27T03:49:18.997Z,56.77
2018-09-27T03:50:18.936Z,56.79
2018-09-27T03:51:18.980Z,56.75
2018-09-27T03:52:18.856Z,56.74
2018-09-27T03:53:18.828Z,56.85
2018-09-27T03:54:18.974Z,56.81
2018-09-27T03:55:18.900Z,56.82
2018-09-27T03:56:18.949Z,56.82
2018-09-27T03:57:18.767Z,56.74
2018-09-27T03:58:19.100Z,56.78
2018-09-27T03:59:18.876Z,56.79
2018-09-27T04:00:19.090Z,56.81
2018-09-27T04:01:18.912Z,56.8
2018-09-27T04:02:18.710Z,56.75
2018-09-27T04:03:19.074Z,56.76
2018-09-27T04:04:18.753Z,56.75
2018-09-27T04:05:18.592Z,56.79
2018-09-27T04:06:18.776Z,56.69
2018-09-27T04:07:18.717Z,56.79
2018-09-27T04:08:18.779Z,56.74
2018-09-27T04:09:19.089Z,56.78
2018-09-27T04:10:18.714Z,56.79
2018-09-27T04:11:18.874Z,56.8
2018-09-27T04:12:18.818Z,56.83
2018-09-27T04:13:19.312Z,56.77
2018-09-27T04:14:18.850Z,56.8
2018-09-27T04:15:18.871Z,56.78
2018-09-27T04:16:18.723Z,56.79
2018-09-27T04:17:18.663Z,56.8
2018-09-27T04:18:18.880Z,56.76
2018-09-27T04:19:18.899Z,56.71
2018-09-27T04:20:18.928Z,56.8
2018-09-27T04:21:18.943Z,56.7
2018-09-27T04:22:18.752Z,56.74
2018-09-27T04:23:19.059Z,56.74
2018-09-27T04:24:19.054Z,56.77
2018-09-27T04:25:18.907Z,56.72
2018-09-27T04:26:18.951Z,56.77
2018-09-27T04:27:18.893Z,56.7
2018-09-27T04:28:18.864Z,56.71
2018-09-27T04:29:18.759Z,56.78
2018-09-27T04:30:18.921Z,56.75
2018-09-27T04:31:19.041Z,56.82
2018-09-27T04:32:18.727Z,56.75
2018-09-27T04:33:18.823Z,56.81
2018-09-27T04:34:18.709Z,56.73
2018-09-27T04:35:18.690Z,56.82
2018-09-27T04:36:19.105Z,56.74
2018-09-27T04:37:19.123Z,56.78
2018-09-27T04:38:18.705Z,56.75
2018-09-27T04:39:19.338Z,56.72
2018-09-27T04:40:19.204Z,56.73
2018-09-27T04:41:18.959Z,56.66
2018-09-27T04:42:19.079Z,56.78
2018-09-27T04:43:18.861Z,56.7
2018-09-27T04:44:18.746Z,56.73
2018-09-27T04:45:18.669Z,56.71
2018-09-27T04:46:18.978Z,56.75
2018-09-27T04:47:19.102Z,56.77
2018-09-27T04:48:19.036Z,56.72
2018-09-27T04:49:18.881Z,56.71
2018-09-27T04:50:19.372Z,56.73
2018-09-27T04:51:18.916Z,56.74
2018-09-27T04:52:18.976Z,56.68
2018-09-27T04:53:18.952Z,56.75
2018-09-27T04:54:18.919Z,56.69
2018-09-27T04:55:19.054Z,56.7
2018-09-27T04:56:19.253Z,56.72
2018-09-27T04:57:19.005Z,56.73
2018-09-27T04:58:18.973Z,56.69
2018-09-27T04:59:18.895Z,56.7
2018-09-27T05:00:18.718Z,56.7
2018-09-27T05:01:18.856Z,56.66
2018-09-27T05:02:18.684Z,56.8
2018-09-27T05:03:18.755Z,56.65
2018-09-27T05:04:18.804Z,56.72
2018-09-27T05:05:18.703Z,56.69
2018-09-27T05:06:18.962Z,56.69
2018-09-27T05:07:18.756Z,56.69
2018-09-27T05:08:19.368Z,56.72
2018-09-27T05:09:19.014Z,56.69
2018-09-27T05:10:18.845Z,56.74
2018-09-27T05:11:18.745Z,56.74
2018-09-27T05:12:19.203Z,56.65
2018-09-27T05:13:18.827Z,56.73
2018-09-27T05:14:19.068Z,56.71
2018-09-27T05:15:18.995Z,56.71
2018-09-27T05:16:19.055Z,56.71
2018-09-27T05:17:18.892Z,56.72
2018-09-27T05:18:18.762Z,56.68
2018-09-27T05:19:18.963Z,56.74
2018-09-27T05:20:18.837Z,56.71
2018-09-27T05:21:18.802Z,56.76
2018-09-27T05:22:18.986Z,56.73
2018-09-27T05:23:18.780Z,56.68
2018-09-27T05:24:18.664Z,56.7
2018-09-27T05:25:18.963Z,56.71
2018-09-27T05:26:19.058Z,56.72
2018-09-27T05:27:19.057Z,56.72
2018-09-27T05:28:18.661Z,56.67
2018-09-27T05:29:18.692Z,56.61
2018-09-27T05:30:18.930Z,56.61
2018-09-27T05:31:18.693Z,56.74
2018-09-27T05:32:18.748Z,56.57
2018-09-27T05:33:18.865Z,56.68
2018-09-27T05:34:18.684Z,56.66
2018-09-27T05:35:18.927Z,56.7
2018-09-27T05:36:18.715Z,56.71
2018-09-27T05:37:18.787Z,56.69
2018-09-27T05:38:18.779Z,56.61
2018-09-27T05:39:18.716Z,56.69
2018-09-27T05:40:18.823Z,56.69
2018-09-27T05:41:18.754Z,56.78
2018-09-27T05:42:18.842Z,56.74
2018-09-27T05:43:18.729Z,56.72
2018-09-27T05:44:18.927Z,56.65
2018-09-27T05:45:18.725Z,56.63
2018-09-27T05:46:18.616Z,56.6
2018-09-27T05:47:18.815Z,56.68
2018-09-27T05:48:18.910Z,56.64
2018-09-27T05:49:18.965Z,56.66
2018-09-27T05:50:18.624Z,56.66
2018-09-27T05:51:18.740Z,56.74
2018-09-27T05:52:19.004Z,56.71
2018-09-27T05:53:18.854Z,56.67
2018-09-27T05:54:18.887Z,56.66
2018-09-27T05:55:18.854Z,56.67
2018-09-27T05:56:18.698Z,56.68
2018-09-27T05:57:18.714Z,56.69
2018-09-27T05:58:19.139Z,56.67
2018-09-27T05:59:18.651Z,56.53
2018-09-27T06:00:18.974Z,56.69
2018-09-27T06:01:18.995Z,56.66
2018-09-27T06:02:18.903Z,56.62
2018-09-27T06:03:18.818Z,56.6
2018-09-27T06:04:18.802Z,56.62
2018-09-27T06:05:18.841Z,56.61
2018-09-27T06:06:18.787Z,56.68
2018-09-27T06:07:18.853Z,56.6
2018-09-27T06:08:19.037Z,56.71
2018-09-27T06:09:18.999Z,56.6
2018-09-27T06:10:18.887Z,56.67
2018-09-27T06:11:18.942Z,56.72
2018-09-27T06:12:18.978Z,56.66
2018-09-27T06:13:18.742Z,56.67
2018-09-27T06:14:18.910Z,56.69
2018-09-27T06:15:18.799Z,56.67
2018-09-27T06:16:18.773Z,56.63
2018-09-27T06:17:18.688Z,56.55
2018-09-27T06:18:18.819Z,56.7
2018-09-27T06:19:18.872Z,56.68
2018-09-27T06:20:18.894Z,56.68
2018-09-27T06:21:18.868Z,56.61
2018-09-27T06:22:18.733Z,56.67
2018-09-27T06:23:18.824Z,56.66
2018-09-27T06:24:18.911Z,56.66
2018-09-27T06:25:18.913Z,56.71
2018-09-27T06:26:18.715Z,56.67
2018-09-27T06:27:18.980Z,56.74
2018-09-27T06:28:18.729Z,56.66
2018-09-27T06:29:18.838Z,56.61
2018-09-27T06:30:19.020Z,56.69
2018-09-27T06:31:18.774Z,56.64
2018-09-27T06:32:18.629Z,56.67
2018-09-27T06:33:19.052Z,56.64
2018-09-27T06:34:18.863Z,56.67
2018-09-27T06:35:18.871Z,56.7
2018-09-27T06:36:19.055Z,56.74
2018-09-27T06:37:18.884Z,56.67
2018-09-27T06:38:18.678Z,56.68
2018-09-27T06:39:18.777Z,56.66
2018-09-27T06:40:18.717Z,56.69
2018-09-27T06:41:18.904Z,56.6
2018-09-27T06:42:19.187Z,56.67
2018-09-27T06:43:18.819Z,56.61
2018-09-27T06:44:18.717Z,56.65
2018-09-27T06:45:18.918Z,56.68
2018-09-27T06:46:18.613Z,56.67
2018-09-27T06:47:19.180Z,56.68
2018-09-27T06:48:19.254Z,56.64
2018-09-27T06:49:19.575Z,56.68
2018-09-27T06:50:18.862Z,56.69
2018-09-27T06:51:18.957Z,56.68
2018-09-27T06:52:18.675Z,56.69
2018-09-27T06:53:19.006Z,56.74
2018-09-27T06:54:19.088Z,56.73
2018-09-27T06:55:19.279Z,56.74
2018-09-27T06:56:18.911Z,56.71
2018-09-27T06:57:18.604Z,56.71
2018-09-27T06:58:18.953Z,56.65
2018-09-27T06:59:18.712Z,56.71
2018-09-27T07:00:18.957Z,56.66
2018-09-27T07:01:18.639Z,56.71
2018-09-27T07:02:18.758Z,56.7
2018-09-27T07:03:18.714Z,56.66
2018-09-27T07:04:18.964Z,56.81
2018-09-27T07:05:18.836Z,56.72
2018-09-27T07:06:18.669Z,56.7
2018-09-27T07:07:18.863Z,56.75
2018-09-27T07:08:18.814Z,56.68
2018-09-27T07:09:19.321Z,56.76
2018-09-27T07:10:18.687Z,56.69
2018-09-27T07:11:18.742Z,56.74
2018-09-27T07:12:19.389Z,56.71
2018-09-27T07:13:18.618Z,56.67
2018-09-27T07:14:18.728Z,56.69
2018-09-27T07:15:18.753Z,56.67
2018-09-27T07:16:18.908Z,56.71
2018-09-27T07:17:18.631Z,56.7
2018-09-27T07:18:18.736Z,56.7
2018-09-27T07:19:18.865Z,56.7
2018-09-27T07:20:19.251Z,56.71
2018-09-27T07:21:19.026Z,56.8
2018-09-27T07:22:18.694Z,56.8
2018-09-27T07:23:18.796Z,56.83
2018-09-27T07:24:19.232Z,56.8
2018-09-27T07:25:19.388Z,56.76
2018-09-27T07:26:18.736Z,56.73
2018-09-27T07:27:18.721Z,56.77
2018-09-27T07:28:18.725Z,56.75
2018-09-27T07:29:18.766Z,56.83
2018-09-27T07:30:18.783Z,56.79
2018-09-27T07:31:18.809Z,56.76
2018-09-27T07:32:19.121Z,56.77
2018-09-27T07:33:18.696Z,56.77
2018-09-27T07:34:18.835Z,56.69
2018-09-27T07:35:18.723Z,56.83
2018-09-27T07:36:18.881Z,56.75
2018-09-27T07:37:19.088Z,56.8
2018-09-27T07:38:18.743Z,56.77
2018-09-27T07:39:18.863Z,56.82
2018-09-27T07:40:19.653Z,56.8
2018-09-27T07:41:18.730Z,56.77
2018-09-27T07:42:19.012Z,56.79
2018-09-27T07:43:18.958Z,56.77
2018-09-27T07:44:18.800Z,56.82
2018-09-27T07:45:19.025Z,56.78
2018-09-27T07:46:18.643Z,56.76
2018-09-27T07:47:18.797Z,56.79
2018-09-27T07:48:19.202Z,56.75
2018-09-27T07:49:18.655Z,56.79
2018-09-27T07:50:18.804Z,56.82
2018-09-27T07:51:18.801Z,56.77
2018-09-27T07:52:18.774Z,56.75
2018-09-27T07:53:18.888Z,56.82
2018-09-27T07:54:18.952Z,56.87
2018-09-27T07:55:18.874Z,56.78
2018-09-27T07:56:19.717Z,56.8
2018-09-27T07:57:18.944Z,56.82
2018-09-27T07:58:18.711Z,56.84
2018-09-27T07:59:18.818Z,56.87
2018-09-27T08:00:18.671Z,56.85
2018-09-27T08:01:18.862Z,56.83
2018-09-27T08:02:18.598Z,56.86
2018-09-27T08:03:18.856Z,56.84
2018-09-27T08:04:18.994Z,56.83
2018-09-27T08:05:19.192Z,56.84
2018-09-27T08:06:18.737Z,56.78
2018-09-27T08:07:18.666Z,56.83
2018-09-27T08:08:19.341Z,56.83
2018-09-27T08:09:18.961Z,56.87
2018-09-27T08:10:19.368Z,56.85
2018-09-27T08:11:19.130Z,56.79
2018-09-27T08:12:19.021Z,56.78
2018-09-27T08:13:18.779Z,56.81
2018-09-27T08:14:19.220Z,56.83
2018-09-27T08:15:18.908Z,56.81
2018-09-27T08:16:18.696Z,56.79
2018-09-27T08:17:18.885Z,56.8
2018-09-27T08:18:18.681Z,56.81
2018-09-27T08:19:18.644Z,56.85
2018-09-27T08:20:18.891Z,56.87
2018-09-27T08:21:19.269Z,56.83
2018-09-27T08:22:18.675Z,56.77
2018-09-27T08:23:18.584Z,56.84
2018-09-27T08:24:18.640Z,56.85
2018-09-27T08:25:18.691Z,56.85
2018-09-27T08:26:18.644Z,56.81
2018-09-27T08:27:19.011Z,56.85
2018-09-27T08:28:18.745Z,56.85
2018-09-27T08:29:18.862Z,56.87
2018-09-27T08:30:18.911Z,56.8
2018-09-27T08:31:18.692Z,56.86
2018-09-27T08:32:18.733Z,56.81
2018-09-27T08:33:18.706Z,56.86
2018-09-27T08:34:18.712Z,56.83
2018-09-27T08:35:18.662Z,56.83
2018-09-27T08:36:18.623Z,56.88
2018-09-27T08:37:18.979Z,56.85
2018-09-27T08:38:18.820Z,56.88
2018-09-27T08:39:18.852Z,56.92
2018-09-27T08:40:18.753Z,56.92
2018-09-27T08:41:18.851Z,56.87
2018-09-27T08:42:18.733Z,56.85
2018-09-27T08:43:18.740Z,56.85
2018-09-27T08:44:19.019Z,56.92
2018-09-27T08:45:20.342Z,56.86
2018-09-27T08:46:18.839Z,56.93
2018-09-27T08:47:18.887Z,56.94
2018-09-27T08:48:19.105Z,56.91
2018-09-27T08:49:18.929Z,56.88
2018-09-27T08:50:18.855Z,56.85
2018-09-27T08:51:18.767Z,56.88
2018-09-27T08:52:18.777Z,56.91
2018-09-27T08:53:18.641Z,56.91
2018-09-27T08:54:18.816Z,56.85
2018-09-27T08:55:18.795Z,56.97
2018-09-27T08:56:19.034Z,56.9
2018-09-27T08:57:18.861Z,56.9
2018-09-27T08:58:18.612Z,56.87
2018-09-27T08:59:18.946Z,56.9
2018-09-27T09:00:19.108Z,56.86
2018-09-27T09:01:18.792Z,56.92
2018-09-27T09:02:18.690Z,56.92
2018-09-27T09:03:18.833Z,56.88
2018-09-27T09:04:18.695Z,56.92
2018-09-27T09:05:18.827Z,56.94
2018-09-27T09:06:18.678Z,56.91
2018-09-27T09:07:18.689Z,56.94
2018-09-27T09:08:18.709Z,56.93
2018-09-27T09:09:18.668Z,57.04
2018-09-27T09:10:19.224Z,57.01
2018-09-27T09:11:18.873Z,56.92
2018-09-27T09:12:18.840Z,56.94
2018-09-27T09:13:18.779Z,56.93
2018-09-27T09:14:19.308Z,56.98
2018-09-27T09:15:18.687Z,56.92
2018-09-27T09:16:18.626Z,56.99
2018-09-27T09:17:19.154Z,57
2018-09-27T09:18:18.643Z,57
2018-09-27T09:19:19.129Z,56.98
2018-09-27T09:20:18.950Z,56.97
2018-09-27T09:21:18.899Z,56.97
2018-09-27T09:22:18.895Z,56.98
2018-09-27T09:23:18.812Z,56.91
2018-09-27T09:24:18.959Z,56.95
2018-09-27T09:25:18.933Z,57.01
2018-09-27T09:26:18.981Z,56.98
2018-09-27T09:27:19.256Z,56.93
2018-09-27T09:28:18.692Z,56.91
2018-09-27T09:29:19.076Z,56.94
2018-09-27T09:30:18.751Z,56.91
2018-09-27T09:31:19.006Z,56.92
2018-09-27T09:32:18.927Z,56.89
2018-09-27T09:33:18.681Z,56.95
2018-09-27T09:34:18.751Z,56.93
2018-09-27T09:35:18.854Z,56.88
2018-09-27T09:36:18.784Z,56.83
2018-09-27T09:37:18.752Z,56.83
2018-09-27T09:38:18.706Z,56.87
2018-09-27T09:39:18.682Z,56.84
2018-09-27T09:40:18.727Z,56.87
2018-09-27T09:41:18.972Z,56.92
2018-09-27T09:42:18.635Z,56.85
2018-09-27T09:43:18.584Z,56.87
2018-09-27T09:44:19.011Z,56.88
2018-09-27T09:45:18.621Z,56.92
2018-09-27T09:46:18.845Z,56.91
2018-09-27T09:47:18.885Z,56.93
2018-09-27T09:48:18.819Z,56.89
2018-09-27T09:49:18.756Z,56.86
2018-09-27T09:50:18.525Z,56.9
2018-09-27T09:51:18.709Z,56.9
2018-09-27T09:52:18.652Z,56.88
2018-09-27T09:53:18.666Z,56.97
2018-09-27T09:54:18.822Z,56.98
2018-09-27T09:55:18.755Z,56.97
2018-09-27T09:56:18.723Z,56.99
2018-09-27T09:57:18.648Z,56.97
2018-09-27T09:58:18.578Z,56.96
2018-09-27T09:59:18.561Z,56.98
2018-09-27T10:00:18.762Z,57.01
2018-09-27T10:01:18.594Z,56.92
2018-09-27T10:02:18.703Z,56.93
2018-09-27T10:03:18.665Z,57
2018-09-27T10:04:18.667Z,56.99
2018-09-27T10:05:18.643Z,57.01
2018-09-27T10:06:18.930Z,57
2018-09-27T10:07:18.780Z,57.08
2018-09-27T10:08:18.942Z,56.99
2018-09-27T10:09:18.802Z,57.04
2018-09-27T10:10:19.045Z,57.12
2018-09-27T10:11:18.895Z,57.15
2018-09-27T10:12:18.709Z,57.06
2018-09-27T10:13:18.768Z,57.12
2018-09-27T10:14:18.726Z,57.11
2018-09-27T10:15:18.692Z,57.14
2018-09-27T10:16:18.609Z,57.15
2018-09-27T10:17:18.609Z,57.18
2018-09-27T10:18:18.724Z,57.13
2018-09-27T10:19:18.818Z,57.17
2018-09-27T10:20:18.836Z,57.09
2018-09-27T10:21:18.758Z,57.19
2018-09-27T10:22:18.671Z,57.08
2018-09-27T10:23:18.727Z,57.02
2018-09-27T10:24:18.711Z,56.99
2018-09-27T10:25:18.940Z,57.02
2018-09-27T10:26:18.776Z,56.98
2018-09-27T10:27:18.793Z,56.98
2018-09-27T10:28:18.783Z,56.91
2018-09-27T10:29:18.658Z,56.94
2018-09-27T10:30:18.877Z,56.82
2018-09-27T10:31:19.020Z,56.92
2018-09-27T10:32:18.664Z,56.89
2018-09-27T10:33:18.721Z,56.89
2018-09-27T10:34:19.256Z,56.85
2018-09-27T10:35:18.569Z,56.84
2018-09-27T10:36:19.231Z,56.89
2018-09-27T10:37:18.881Z,56.91
2018-09-27T10:38:18.549Z,56.88
2018-09-27T10:39:18.734Z,56.93
2018-09-27T10:40:19.253Z,56.9
2018-09-27T10:41:18.599Z,56.89
2018-09-27T10:42:18.748Z,56.89
2018-09-27T10:43:18.971Z,56.93
2018-09-27T10:44:18.714Z,56.85
2018-09-27T10:45:18.592Z,56.89
2018-09-27T10:46:18.752Z,56.92
2018-09-27T10:47:18.741Z,56.91
2018-09-27T10:48:19.144Z,56.9
2018-09-27T10:49:19.023Z,56.95
2018-09-27T10:50:18.856Z,56.97
2018-09-27T10:51:18.721Z,56.9
2018-09-27T10:52:19.079Z,56.93
2018-09-27T10:53:18.609Z,56.9
2018-09-27T10:54:18.912Z,56.88
2018-09-27T10:55:18.950Z,56.76
2018-09-27T10:56:18.824Z,56.88
2018-09-27T10:57:19.010Z,56.92
2018-09-27T10:58:18.752Z,56.89
2018-09-27T10:59:18.742Z,56.93
2018-09-27T11:00:18.669Z,56.87
2018-09-27T11:01:18.844Z,56.74
2018-09-27T11:02:18.609Z,56.91
2018-09-27T11:03:19.020Z,56.91
2018-09-27T11:04:18.691Z,57
2018-09-27T11:05:18.945Z,57.01
2018-09-27T11:06:18.766Z,56.96
2018-09-27T11:07:18.828Z,57.01
2018-09-27T11:08:18.667Z,56.96
2018-09-27T11:09:18.687Z,56.96
2018-09-27T11:10:19.032Z,56.94
2018-09-27T11:11:19.025Z,56.93
2018-09-27T11:12:18.976Z,56.98
2018-09-27T11:13:18.673Z,56.98
2018-09-27T11:14:19.096Z,57.01
2018-09-27T11:15:18.826Z,56.95
2018-09-27T11:16:19.489Z,56.97
2018-09-27T11:17:18.558Z,56.96
2018-09-27T11:18:18.711Z,56.99
2018-09-27T11:19:18.698Z,56.99
2018-09-27T11:20:18.505Z,57.01
2018-09-27T11:21:18.971Z,57.04
2018-09-27T11:22:18.507Z,56.98
2018-09-27T11:23:18.777Z,57.03
2018-09-27T11:24:18.620Z,56.94
2018-09-27T11:25:18.743Z,57.02
2018-09-27T11:26:18.544Z,57.03
2018-09-27T11:27:18.761Z,57
2018-09-27T11:28:18.792Z,57.11
2018-09-27T11:29:18.688Z,57.01
2018-09-27T11:30:18.957Z,57.02
2018-09-27T11:31:19.021Z,57.08
2018-09-27T11:32:18.822Z,57.05
2018-09-27T11:33:18.844Z,57.02
2018-09-27T11:34:18.681Z,57.09
2018-09-27T11:35:18.693Z,57.08
2018-09-27T11:36:18.900Z,57.03
2018-09-27T11:37:18.968Z,57.03
2018-09-27T11:38:19.031Z,57.01
2018-09-27T11:39:18.658Z,57.12
2018-09-27T11:40:18.878Z,57.02
2018-09-27T11:41:18.877Z,57.05
2018-09-27T11:42:18.917Z,57.07
2018-09-27T11:43:18.790Z,57.1
2018-09-27T11:44:18.764Z,57.07
2018-09-27T11:45:18.753Z,57.05
2018-09-27T11:46:18.707Z,57.05
2018-09-27T11:47:18.652Z,57.04
2018-09-27T11:48:18.944Z,57.12
2018-09-27T11:49:18.862Z,57.04
2018-09-27T11:50:19.244Z,57.12
2018-09-27T11:51:18.698Z,57.08
2018-09-27T11:52:19.160Z,57.16
2018-09-27T11:53:18.965Z,57.11
2018-09-27T11:54:19.135Z,57.12
2018-09-27T11:55:18.935Z,57.1
2018-09-27T11:56:18.571Z,57.18
2018-09-27T11:57:19.019Z,57.12
2018-09-27T11:58:18.722Z,57.13
2018-09-27T11:59:18.659Z,57.11
2018-09-27T12:00:18.854Z,57.1
2018-09-27T12:01:18.771Z,57.15
2018-09-27T12:02:18.600Z,57.16
2018-09-27T12:03:18.666Z,57.12
2018-09-27T12:04:19.000Z,57.14
2018-09-27T12:05:18.712Z,57.13
2018-09-27T12:06:18.606Z,57.21
2018-09-27T12:07:18.644Z,57.13
2018-09-27T12:08:18.754Z,57.16
2018-09-27T12:09:18.870Z,57.2
2018-09-27T12:10:18.464Z,57.14
2018-09-27T12:11:18.608Z,57.1
2018-09-27T12:12:18.449Z,57.12
2018-09-27T12:13:18.646Z,57.19
2018-09-27T12:14:18.558Z,57.18
2018-09-27T12:15:18.647Z,57.2
2018-09-27T12:16:18.527Z,57.17
2018-09-27T12:17:18.609Z,57.23
2018-09-27T12:18:18.709Z,57.25
2018-09-27T12:19:18.634Z,57.24
2018-09-27T12:20:18.629Z,57.26
2018-09-27T12:21:18.583Z,57.22
2018-09-27T12:22:18.956Z,57.26
2018-09-27T12:23:18.749Z,57.25
2018-09-27T12:24:18.822Z,57.24
2018-09-27T12:25:18.756Z,57.16
2018-09-27T12:26:18.598Z,57.12
2018-09-27T12:27:18.808Z,57.18
2018-09-27T12:28:18.675Z,57.21
2018-09-27T12:29:18.731Z,57.24
2018-09-27T12:30:18.667Z,57.22
2018-09-27T12:31:18.544Z,57.2
2018-09-27T12:32:18.745Z,57.22
2018-09-27T12:33:18.868Z,57.18
2018-09-27T12:34:18.624Z,57.2
2018-09-27T12:35:18.827Z,57.24
2018-09-27T12:36:19.046Z,57.23
2018-09-27T12:37:18.869Z,57.21
2018-09-27T12:38:18.805Z,57.23
2018-09-27T12:39:18.743Z,57.28
2018-09-27T12:40:18.983Z,57.15
2018-09-27T12:41:18.770Z,57.23
2018-09-27T12:42:19.092Z,57.18
2018-09-27T12:43:18.838Z,57.22
2018-09-27T12:44:18.591Z,57.16
2018-09-27T12:45:19.036Z,57.18
2018-09-27T12:46:19.184Z,57.22
2018-09-27T12:47:18.572Z,57.24
2018-09-27T12:48:18.903Z,57.2
2018-09-27T12:49:18.654Z,57.19
2018-09-27T12:50:18.715Z,57.22
2018-09-27T12:51:19.636Z,57.11
2018-09-27T12:52:19.207Z,57.13
2018-09-27T12:53:18.636Z,57.15
2018-09-27T12:54:18.564Z,57.22
2018-09-27T12:55:18.899Z,57.22